Time;durP1;ratioP1;P1;durP2;ratioP2;P2;SDS_P1;SDS_P2;PMS_P1;PMS_P2;Temp;Humidity;BMP_temperature;BMP_pressure;BME280_temperature;BME280_humidity;BME280_pressure;Samples;Min_cycle;Max_cycle;Signal;HPM_P1;HPM_P2
2021/11/10 00:01:52;;;;;;;21.70;10.20;;;4.50;99.90;;;;;;5056255;28;20513;-51
2021/11/10 00:04:22;;;;;;;15.60;9.40;;;4.30;99.90;;;;;;5052292;28;20513;-51
2021/11/10 00:06:49;;;;;;;16.90;9.53;;;4.30;99.90;;;;;;5051971;28;20440;-51
2021/11/10 00:09:16;;;;;;;13.90;9.83;;;4.40;99.90;;;;;;5051886;28;20991;-51
2021/11/10 00:11:43;;;;;;;18.13;10.23;;;4.30;99.90;;;;;;5055119;28;20533;-51
2021/11/10 00:14:10;;;;;;;15.43;9.23;;;4.20;99.90;;;;;;5052035;28;20533;-51
2021/11/10 00:16:37;;;;;;;17.77;10.23;;;4.20;99.90;;;;;;5051503;28;20456;-51
2021/11/10 00:19:04;;;;;;;15.80;9.37;;;4.30;99.90;;;;;;5058115;28;20525;-51
2021/11/10 00:21:33;;;;;;;17.70;10.40;;;4.30;99.90;;;;;;5063755;28;20508;-51
2021/11/10 00:24:00;;;;;;;17.10;9.63;;;4.30;99.90;;;;;;5066530;28;20977;-51
2021/11/10 00:26:27;;;;;;;13.00;8.87;;;4.30;99.90;;;;;;5063785;28;20459;-51
2021/11/10 00:28:56;;;;;;;15.23;9.63;;;4.30;99.90;;;;;;5062285;28;20513;-51
2021/11/10 00:31:23;;;;;;;19.40;10.97;;;4.30;99.90;;;;;;5051190;28;20451;-51
2021/11/10 00:33:50;;;;;;;13.07;8.57;;;4.20;99.90;;;;;;5051616;28;20885;-51
2021/11/10 00:36:18;;;;;;;18.27;10.00;;;4.10;99.90;;;;;;5063982;28;20455;-51
2021/11/10 00:38:46;;;;;;;14.90;9.20;;;4.00;99.90;;;;;;5071792;28;20478;-51
2021/11/10 00:41:14;;;;;;;15.67;9.10;;;4.10;99.90;;;;;;5061116;28;20447;-51
2021/11/10 00:43:41;;;;;;;13.10;8.50;;;4.20;99.90;;;;;;5051598;28;20451;-51
2021/11/10 00:46:08;;;;;;;14.77;9.20;;;4.20;99.90;;;;;;5051220;28;20451;-51
2021/11/10 00:48:35;;;;;;;16.93;8.77;;;4.20;99.90;;;;;;5051451;28;20521;-51
2021/11/10 00:51:02;;;;;;;15.17;8.80;;;4.20;99.90;;;;;;5050620;28;20443;-51
2021/11/10 00:53:30;;;;;;;11.93;8.43;;;4.20;99.90;;;;;;5051222;28;20456;-50
2021/11/10 00:55:58;;;;;;;15.33;9.53;;;4.20;99.90;;;;;;5051487;28;20475;-50
2021/11/10 00:58:25;;;;;;;13.70;8.20;;;4.20;99.90;;;;;;5052263;28;20487;-51
2021/11/10 01:00:52;;;;;;;16.70;9.50;;;4.20;99.90;;;;;;5055250;28;20447;-51
2021/11/10 01:03:20;;;;;;;17.77;9.80;;;4.20;99.90;;;;;;5055579;28;20455;-51
2021/11/10 01:05:47;;;;;;;16.30;9.70;;;4.20;99.90;;;;;;5055589;28;20554;-51
2021/11/10 01:08:14;;;;;;;16.47;8.87;;;4.20;99.90;;;;;;5055349;28;20942;-51
2021/11/10 01:10:41;;;;;;;16.00;9.43;;;4.20;99.90;;;;;;5054945;28;20870;-51
2021/11/10 01:13:09;;;;;;;14.93;8.57;;;4.20;99.90;;;;;;5055197;28;20889;-51
2021/11/10 01:15:39;;;;;;;12.73;8.07;;;4.10;99.90;;;;;;5054865;28;20468;-50
2021/11/10 01:18:06;;;;;;;14.77;8.47;;;4.00;99.90;;;;;;5056179;28;20534;-50
2021/11/10 01:20:33;;;;;;;15.13;9.10;;;4.00;99.90;;;;;;5054672;28;20509;-51
2021/11/10 01:23:00;;;;;;;13.97;9.03;;;4.10;99.90;;;;;;5055338;28;20938;-51
2021/11/10 01:25:28;;;;;;;13.60;8.30;;;4.10;99.90;;;;;;5089328;22;20494;-52
2021/11/10 01:27:55;;;;;;;16.57;9.47;;;4.10;99.90;;;;;;5059248;28;20444;-52
2021/11/10 01:30:24;;;;;;;16.50;8.97;;;4.10;99.90;;;;;;5056362;28;20443;-52
2021/11/10 01:32:52;;;;;;;14.90;8.63;;;4.10;99.90;;;;;;5073807;28;20459;-53
2021/11/10 01:35:19;;;;;;;17.07;9.87;;;4.00;99.90;;;;;;5086650;28;20469;-52
2021/11/10 01:37:46;;;;;;;16.90;9.30;;;4.00;99.90;;;;;;5095287;28;20489;-52
2021/11/10 01:40:15;;;;;;;18.67;10.80;;;4.00;99.90;;;;;;5094560;28;20507;-52
2021/11/10 01:42:43;;;;;;;19.30;10.63;;;4.00;99.90;;;;;;5074839;28;20480;-53
2021/11/10 01:45:12;;;;;;;21.10;11.40;;;4.10;99.90;;;;;;5074796;28;20998;-53
2021/11/10 01:47:40;;;;;;;20.07;10.40;;;4.00;99.90;;;;;;5074965;28;20572;-53
2021/11/10 01:50:11;;;;;;;19.70;10.97;;;4.00;99.90;;;;;;5074792;28;20482;-52
2021/11/10 01:52:38;;;;;;;19.13;10.83;;;3.90;99.90;;;;;;5094164;28;20871;-52
2021/11/10 01:55:07;;;;;;;18.30;10.63;;;3.90;99.90;;;;;;5094725;28;20825;-52
2021/11/10 01:57:34;;;;;;;19.03;10.50;;;4.00;99.90;;;;;;5083591;28;20895;-52
2021/11/10 02:00:21;;;;;;;19.63;11.00;;;3.90;99.90;;;;;;5074873;28;20821;-53
2021/11/10 02:02:50;;;;;;;19.63;11.27;;;4.10;99.90;;;;;;5074796;28;20439;-52
2021/11/10 02:05:17;;;;;;;17.43;10.13;;;4.10;99.90;;;;;;5090928;28;20477;-52
2021/11/10 02:07:45;;;;;;;16.50;10.27;;;3.80;99.90;;;;;;5094853;28;20935;-53
2021/11/10 02:10:15;;;;;;;17.57;10.37;;;3.90;99.90;;;;;;5094034;28;20453;-53
2021/11/10 02:12:42;;;;;;;17.50;10.60;;;3.90;99.90;;;;;;5074799;28;20522;-53
2021/11/10 02:15:12;;;;;;;14.03;8.87;;;3.90;99.90;;;;;;5089477;28;20918;-53
2021/11/10 02:17:39;;;;;;;19.07;10.50;;;3.90;99.90;;;;;;5084529;28;20596;-52
2021/11/10 02:20:10;;;;;;;17.60;9.67;;;3.90;99.90;;;;;;5074196;28;20450;-53
2021/11/10 02:22:39;;;;;;;16.97;10.00;;;3.90;99.90;;;;;;5079610;28;20884;-53
2021/11/10 02:25:09;;;;;;;16.17;9.53;;;3.90;99.90;;;;;;5075247;28;20524;-53
2021/11/10 02:27:37;;;;;;;17.77;8.10;;;4.00;99.90;;;;;;5074585;28;20454;-53
2021/11/10 02:30:07;;;;;;;13.27;7.67;;;4.00;99.90;;;;;;5073943;28;20446;-52
2021/11/10 02:32:34;;;;;;;12.83;7.43;;;3.90;99.90;;;;;;5092056;28;20445;-53
2021/11/10 02:35:01;;;;;;;12.40;7.30;;;3.90;99.90;;;;;;5092208;28;20466;-53
2021/11/10 02:37:28;;;;;;;18.03;7.80;;;3.90;99.90;;;;;;5094125;28;20511;-53
2021/11/10 02:39:57;;;;;;;10.27;7.17;;;3.90;99.90;;;;;;5076563;28;20949;-53
2021/11/10 02:42:25;;;;;;;11.57;6.63;;;3.90;99.90;;;;;;5089238;28;20446;-53
2021/11/10 02:44:54;;;;;;;10.30;6.43;;;3.90;99.90;;;;;;5094324;28;20469;-53
2021/11/10 02:47:22;;;;;;;11.63;6.50;;;3.90;99.90;;;;;;5094125;28;20511;-53
2021/11/10 02:49:49;;;;;;;13.43;6.87;;;3.90;99.90;;;;;;5091900;28;20482;-52
2021/11/10 02:52:20;;;;;;;10.97;7.00;;;3.90;99.90;;;;;;5078120;28;20456;-53
2021/11/10 02:54:50;;;;;;;9.67;6.13;;;4.00;99.90;;;;;;5073804;28;20824;-53
2021/11/10 02:57:19;;;;;;;10.20;6.20;;;4.00;99.90;;;;;;5073603;28;20451;-53
2021/11/10 02:59:46;;;;;;;11.20;6.60;;;4.00;99.90;;;;;;5075408;28;20478;-53
2021/11/10 03:02:13;;;;;;;10.90;6.73;;;3.90;99.90;;;;;;5092485;28;20489;-53
2021/11/10 03:04:45;;;;;;;10.33;6.60;;;3.90;99.90;;;;;;5093756;28;20522;-52
2021/11/10 03:07:13;;;;;;;12.73;7.47;;;3.90;99.90;;;;;;5092024;28;20533;-53
2021/11/10 03:09:41;;;;;;;9.67;6.77;;;3.90;99.90;;;;;;5090800;28;20484;-53
2021/11/10 03:12:10;;;;;;;11.13;7.37;;;3.90;99.90;;;;;;5086580;28;20480;-52
2021/11/10 03:14:42;;;;;;;11.83;7.40;;;4.10;99.90;;;;;;5092741;28;20519;-53
2021/11/10 03:17:11;;;;;;;12.60;7.00;;;4.00;99.90;;;;;;5086988;28;20519;-52
2021/11/10 03:19:39;;;;;;;11.20;7.03;;;3.70;99.90;;;;;;5076974;28;20485;-52
2021/11/10 03:22:08;;;;;;;12.13;7.60;;;3.80;99.90;;;;;;5078536;28;20981;-53
2021/11/10 03:24:36;;;;;;;12.73;7.50;;;3.80;99.90;;;;;;5073544;28;21068;-53
2021/11/10 03:27:04;;;;;;;12.83;7.10;;;3.80;99.90;;;;;;5083607;28;20445;-53
2021/11/10 03:29:32;;;;;;;11.80;7.13;;;3.80;99.90;;;;;;5076178;28;20456;-53
2021/11/10 03:32:01;;;;;;;10.70;6.87;;;3.70;99.90;;;;;;5076915;28;20482;-53
2021/11/10 03:34:28;;;;;;;12.93;6.90;;;3.70;99.90;;;;;;5084120;28;20478;-53
2021/11/10 03:36:55;;;;;;;11.00;6.83;;;3.70;99.90;;;;;;5082590;28;20535;-52
2021/11/10 03:39:22;;;;;;;10.17;7.10;;;3.60;99.90;;;;;;5087159;28;20542;-53
2021/11/10 03:41:49;;;;;;;10.60;6.80;;;3.70;99.90;;;;;;5071622;28;21014;-53
2021/11/10 03:44:17;;;;;;;10.60;6.87;;;3.60;99.90;;;;;;5072732;28;20474;-53
2021/11/10 03:46:46;;;;;;;9.30;6.43;;;3.50;99.90;;;;;;5072654;28;20447;-53
2021/11/10 03:49:15;;;;;;;9.30;6.17;;;3.50;99.90;;;;;;5072537;28;20447;-53
2021/11/10 03:51:42;;;;;;;9.80;6.20;;;3.40;99.90;;;;;;5076095;28;20456;-52
2021/11/10 03:54:10;;;;;;;14.30;6.77;;;3.40;99.90;;;;;;5072037;28;20453;-53
2021/11/10 03:56:37;;;;;;;13.00;7.97;;;3.40;99.90;;;;;;5072080;28;20959;-53
2021/11/10 03:59:04;;;;;;;11.87;8.10;;;3.30;99.90;;;;;;5072362;28;20920;-53
2021/11/10 04:01:32;;;;;;;12.07;7.20;;;3.10;99.90;;;;;;5072227;28;20519;-53
2021/11/10 04:03:59;;;;;;;10.93;7.10;;;3.50;99.90;;;;;;5073381;28;20505;-53
2021/11/10 04:06:28;;;;;;;13.70;7.40;;;3.40;99.90;;;;;;5076347;28;20475;-53
2021/11/10 04:08:55;;;;;;;12.60;7.87;;;3.30;99.90;;;;;;5086064;28;20465;-52
2021/11/10 04:11:23;;;;;;;12.40;7.10;;;3.30;99.90;;;;;;5084687;28;20878;-53
2021/11/10 04:13:51;;;;;;;13.40;7.17;;;3.30;99.90;;;;;;5072028;28;20457;-53
2021/11/10 04:16:22;;;;;;;11.63;7.40;;;3.30;99.90;;;;;;5080551;28;20987;-52
2021/11/10 04:18:50;;;;;;;11.20;6.87;;;3.30;99.90;;;;;;5077574;28;20470;-53
2021/11/10 04:21:18;;;;;;;13.33;7.37;;;3.20;99.90;;;;;;5072080;28;20963;-53
2021/11/10 04:23:49;;;;;;;13.93;8.10;;;3.40;99.90;;;;;;5071981;28;20494;-52
2021/11/10 04:26:16;;;;;;;12.33;6.73;;;3.30;99.90;;;;;;5079604;28;20975;-53
2021/11/10 04:28:43;;;;;;;9.90;6.60;;;3.40;99.90;;;;;;5071911;28;20447;-53
2021/11/10 04:31:11;;;;;;;10.33;6.27;;;3.30;99.90;;;;;;5071256;28;20828;-53
2021/11/10 04:33:38;;;;;;;10.33;7.30;;;3.30;99.90;;;;;;5080192;28;20449;-53
2021/11/10 04:36:06;;;;;;;11.37;7.47;;;3.30;99.90;;;;;;5082747;28;20489;-53
2021/11/10 04:38:33;;;;;;;9.93;6.50;;;3.30;99.90;;;;;;5071389;28;21041;-53
2021/11/10 04:41:02;;;;;;;13.17;7.80;;;3.30;99.90;;;;;;5071282;28;20450;-53
2021/11/10 04:43:29;;;;;;;8.37;6.90;;;3.30;99.90;;;;;;5071880;28;20455;-52
2021/11/10 04:46:05;;;;;;;11.53;7.10;;;3.20;99.90;;;;;;5071678;28;20474;-53
2021/11/10 04:48:32;;;;;;;11.13;7.07;;;3.20;99.90;;;;;;5071537;28;20476;-53
2021/11/10 04:50:59;;;;;;;13.50;7.37;;;3.20;99.90;;;;;;5071985;28;21036;-53
2021/11/10 04:53:26;;;;;;;13.27;6.80;;;3.20;99.90;;;;;;5073884;28;20446;-53
2021/11/10 04:55:53;;;;;;;11.63;6.90;;;3.20;99.90;;;;;;5071431;28;20474;-53
2021/11/10 04:58:22;;;;;;;12.00;7.03;;;3.10;99.90;;;;;;5084937;28;20535;-53
2021/11/10 05:00:49;;;;;;;12.30;7.13;;;3.20;99.90;;;;;;5076585;28;20458;-53
2021/11/10 05:03:16;;;;;;;11.93;7.70;;;3.20;99.90;;;;;;5076289;28;20442;-53
2021/11/10 05:05:44;;;;;;;10.10;6.53;;;3.20;99.90;;;;;;5081122;28;21018;-53
2021/11/10 05:14:57;;;;;;;10.90;7.20;;;3.20;99.90;;;;;;5071738;28;20429;-53
2021/11/10 05:17:24;;;;;;;14.23;7.67;;;3.20;99.90;;;;;;5087937;28;20445;-53
2021/11/10 05:19:51;;;;;;;12.17;7.23;;;3.20;99.90;;;;;;5079234;28;21071;-53
2021/11/10 05:22:19;;;;;;;10.57;7.23;;;3.10;99.90;;;;;;5084465;28;20885;-53
2021/11/10 05:24:46;;;;;;;13.03;7.63;;;3.20;99.90;;;;;;5074755;28;20504;-53
2021/11/10 05:27:13;;;;;;;15.30;7.63;;;3.20;99.90;;;;;;5081112;28;20846;-53
2021/11/10 05:29:40;;;;;;;10.93;7.20;;;3.20;99.90;;;;;;5087763;28;20942;-52
2021/11/10 05:32:29;;;;;;;14.33;7.40;;;3.20;99.90;;;;;;5085731;28;20447;-53
2021/11/10 05:34:58;;;;;;;14.80;9.00;;;3.20;99.90;;;;;;5089870;28;20477;-53
2021/11/10 05:37:29;;;;;;;15.73;8.90;;;3.20;99.90;;;;;;5072562;28;20461;-52
2021/11/10 05:39:57;;;;;;;13.00;9.23;;;3.00;99.90;;;;;;5082182;28;20921;-53
2021/11/10 05:42:27;;;;;;;14.77;8.80;;;2.70;99.90;;;;;;5081835;28;20948;-53
2021/11/10 05:44:55;;;;;;;15.73;8.90;;;2.80;99.90;;;;;;5071236;28;20498;-53
2021/11/10 05:47:25;;;;;;;16.67;9.80;;;2.90;99.90;;;;;;5077403;28;20446;-53
2021/11/10 05:49:53;;;;;;;16.87;9.70;;;3.00;99.90;;;;;;5075313;28;20448;-52
2021/11/10 05:52:21;;;;;;;18.77;10.70;;;3.00;99.90;;;;;;5080944;28;20657;-53
2021/11/10 05:54:48;;;;;;;18.60;9.43;;;3.00;99.90;;;;;;5077955;28;20466;-52
2021/11/10 05:57:15;;;;;;;15.93;9.70;;;3.10;99.90;;;;;;5074561;28;20853;-53
2021/11/10 05:59:43;;;;;;;23.23;13.00;;;2.90;99.90;;;;;;5090595;28;20529;-52
2021/11/10 06:02:10;;;;;;;26.30;14.13;;;3.00;99.90;;;;;;5086783;28;20935;-52
2021/11/10 06:04:38;;;;;;;24.20;13.20;;;3.10;99.90;;;;;;5091784;28;20461;-53
2021/11/10 06:07:08;;;;;;;18.60;11.57;;;3.00;99.90;;;;;;5076531;28;20443;-53
2021/11/10 06:09:36;;;;;;;23.77;14.00;;;3.10;99.90;;;;;;5093118;28;20459;-53
2021/11/10 06:12:04;;;;;;;22.10;13.50;;;3.10;99.90;;;;;;5082677;28;20945;-53
2021/11/10 06:14:32;;;;;;;21.63;12.67;;;3.10;99.90;;;;;;5074696;28;20870;-53
2021/11/10 06:16:59;;;;;;;22.80;13.30;;;2.90;99.90;;;;;;5074193;28;20460;-53
2021/11/10 06:19:26;;;;;;;20.33;11.97;;;3.00;99.90;;;;;;5074157;28;20481;-53
2021/11/10 06:21:53;;;;;;;17.50;11.33;;;3.10;99.90;;;;;;5085407;28;20446;-52
2021/11/10 06:24:23;;;;;;;23.33;12.83;;;3.20;99.90;;;;;;5073505;28;20849;-53
2021/11/10 06:26:51;;;;;;;19.60;11.60;;;3.20;99.90;;;;;;5073903;28;20461;-53
2021/11/10 06:29:20;;;;;;;19.47;10.90;;;3.20;99.90;;;;;;5073511;28;20976;-53
2021/11/10 06:31:48;;;;;;;23.70;11.70;;;3.30;99.90;;;;;;5074612;28;20469;-53
2021/11/10 06:34:15;;;;;;;18.40;11.17;;;3.30;99.90;;;;;;5074023;28;20482;-53
2021/11/10 06:36:42;;;;;;;17.70;11.30;;;3.30;99.90;;;;;;5073370;28;20495;-53
2021/11/10 06:39:09;;;;;;;22.87;12.60;;;3.40;99.90;;;;;;5074002;28;20482;-53
2021/11/10 06:41:38;;;;;;;21.23;11.93;;;3.40;99.90;;;;;;5073368;28;20451;-53
2021/11/10 06:44:06;;;;;;;24.27;13.20;;;3.50;99.90;;;;;;5072505;28;20495;-53
2021/11/10 06:46:33;;;;;;;39.37;18.90;;;3.50;99.90;;;;;;5082369;28;20450;-53
2021/11/10 06:49:00;;;;;;;47.30;21.33;;;3.40;99.90;;;;;;5079519;28;20855;-53
2021/11/10 06:51:27;;;;;;;39.23;19.97;;;3.30;99.90;;;;;;5089113;28;21147;-53
2021/11/10 06:53:54;;;;;;;38.57;19.00;;;3.30;99.90;;;;;;5090165;28;20503;-53
2021/11/10 06:56:21;;;;;;;27.23;15.53;;;3.40;99.90;;;;;;5082027;28;20491;-53
2021/11/10 06:58:49;;;;;;;25.80;14.67;;;3.60;99.90;;;;;;5072833;28;20516;-53
2021/11/10 07:01:17;;;;;;;23.40;12.53;;;3.60;99.90;;;;;;5078416;28;20496;-53
2021/11/10 07:03:44;;;;;;;27.03;13.13;;;3.50;99.90;;;;;;5076207;28;20447;-53
2021/11/10 07:06:11;;;;;;;25.03;13.23;;;3.60;99.90;;;;;;5077632;28;20482;-53
2021/11/10 07:08:38;;;;;;;20.50;12.83;;;3.50;99.90;;;;;;5086859;28;20457;-52
2021/11/10 07:11:05;;;;;;;21.30;11.73;;;3.40;99.90;;;;;;5075983;28;20863;-53
2021/11/10 07:13:32;;;;;;;17.50;10.67;;;3.30;99.90;;;;;;5103340;28;20503;-52
2021/11/10 07:16:01;;;;;;;19.67;10.30;;;3.40;99.90;;;;;;5093433;28;20465;-53
2021/11/10 07:18:28;;;;;;;15.90;9.60;;;3.40;99.90;;;;;;5093769;28;20479;-53
2021/11/10 07:20:55;;;;;;;16.53;10.03;;;3.40;99.90;;;;;;5092385;28;20527;-53
2021/11/10 07:23:22;;;;;;;14.77;9.53;;;3.50;99.90;;;;;;5093431;28;20498;-53
2021/11/10 07:25:50;;;;;;;18.20;10.20;;;3.40;99.90;;;;;;5116863;22;20474;-53
2021/11/10 07:28:17;;;;;;;14.87;9.73;;;3.50;99.90;;;;;;5071039;28;20455;-51
2021/11/10 07:30:45;;;;;;;17.03;9.43;;;3.50;99.90;;;;;;5071496;28;20862;-51
2021/11/10 07:33:13;;;;;;;19.83;10.83;;;3.50;99.90;;;;;;5072798;28;20449;-53
2021/11/10 07:35:41;;;;;;;24.30;10.67;;;3.60;99.90;;;;;;5072530;28;20447;-51
2021/11/10 07:38:08;;;;;;;25.87;11.67;;;3.70;99.90;;;;;;5072599;28;20523;-51
2021/11/10 07:40:35;;;;;;;21.77;11.30;;;3.70;99.90;;;;;;5066884;28;20486;-51
2021/11/10 07:43:02;;;;;;;17.97;10.13;;;3.60;99.90;;;;;;5054093;28;20451;-52
2021/11/10 07:45:34;;;;;;;20.67;11.00;;;3.70;99.90;;;;;;5052565;28;20852;-51
2021/11/10 07:48:02;;;;;;;16.47;11.27;;;3.70;99.90;;;;;;5051431;28;20486;-51
2021/11/10 07:50:32;;;;;;;15.90;10.67;;;3.70;99.90;;;;;;5058176;28;20448;-52
2021/11/10 07:53:00;;;;;;;17.67;10.13;;;3.80;99.90;;;;;;5055860;28;20944;-51
2021/11/10 07:55:28;;;;;;;17.27;11.30;;;3.90;99.90;;;;;;5051050;28;20471;-51
2021/11/10 07:57:56;;;;;;;15.80;9.30;;;3.80;99.90;;;;;;5050799;28;21297;-50
2021/11/10 08:00:24;;;;;;;21.40;11.67;;;3.70;99.90;;;;;;5051853;28;20848;-52
2021/11/10 08:02:51;;;;;;;16.90;10.27;;;3.90;99.90;;;;;;5052275;28;20853;-52
2021/11/10 08:05:19;;;;;;;17.17;10.90;;;4.00;99.90;;;;;;5052100;28;20516;-51
2021/11/10 08:07:47;;;;;;;22.00;10.50;;;4.10;99.90;;;;;;5051459;28;20903;-52
2021/11/10 08:10:17;;;;;;;19.57;10.90;;;4.40;99.90;;;;;;5052128;28;20489;-53
2021/11/10 08:12:47;;;;;;;19.63;11.23;;;4.50;99.90;;;;;;5052054;28;20454;-53
2021/11/10 08:15:16;;;;;;;16.70;11.20;;;4.70;99.90;;;;;;5052150;28;20451;-51
2021/11/10 08:17:52;;;;;;;20.43;11.30;;;4.90;99.90;;;;;;5051836;28;20876;-52
2021/11/10 08:20:19;;;;;;;18.43;11.30;;;4.90;99.90;;;;;;5053664;28;20479;-51
2021/11/10 08:22:52;;;;;;;18.33;10.43;;;5.00;99.90;;;;;;5051434;28;20942;-52
2021/11/10 08:25:19;;;;;;;16.90;10.67;;;5.30;99.90;;;;;;5051540;28;20487;-53
2021/11/10 08:27:47;;;;;;;15.10;10.50;;;5.10;99.90;;;;;;5051604;28;20989;-51
2021/11/10 08:30:17;;;;;;;18.70;12.00;;;5.10;99.90;;;;;;5050977;28;20502;-51
2021/11/10 08:32:45;;;;;;;22.93;12.60;;;5.20;99.90;;;;;;5051294;28;20930;-51
2021/11/10 08:35:12;;;;;;;19.33;11.30;;;5.00;99.90;;;;;;5051070;28;20501;-51
2021/11/10 08:37:41;;;;;;;22.40;11.77;;;5.10;99.90;;;;;;5051471;28;20521;-51
2021/11/10 08:40:12;;;;;;;24.13;12.40;;;5.20;99.90;;;;;;5051707;28;20537;-50
2021/11/10 08:42:41;;;;;;;21.37;12.20;;;5.20;99.90;;;;;;5039305;28;21045;-52
2021/11/10 08:45:10;;;;;;;26.23;13.40;;;5.30;99.90;;;;;;5031608;28;20509;-52
2021/11/10 08:47:39;;;;;;;21.83;12.77;;;5.40;99.90;;;;;;5031743;28;20473;-51
2021/11/10 08:50:08;;;;;;;20.57;12.43;;;5.70;99.90;;;;;;5031572;28;20523;-51
2021/11/10 08:52:36;;;;;;;26.07;13.70;;;6.10;99.90;;;;;;5049948;28;20451;-51
2021/11/10 08:55:05;;;;;;;22.97;12.93;;;6.60;99.90;;;;;;5031548;28;20535;-52
2021/11/10 08:57:34;;;;;;;23.40;12.93;;;6.90;99.90;;;;;;5031627;28;20468;-52
2021/11/10 09:00:01;;;;;;;26.73;13.70;;;7.30;99.90;;;;;;5031781;28;20492;-51
2021/11/10 09:02:28;;;;;;;24.50;12.93;;;7.70;99.90;;;;;;5053120;28;20447;-52
2021/11/10 09:04:55;;;;;;;19.67;12.10;;;8.00;99.90;;;;;;5057033;28;20516;-51
2021/11/10 09:07:22;;;;;;;23.27;12.50;;;8.40;99.90;;;;;;5051494;28;20529;-51
2021/11/10 09:09:49;;;;;;;22.90;13.10;;;8.90;99.90;;;;;;5051065;28;20941;-52
2021/11/10 09:12:16;;;;;;;24.03;14.30;;;9.00;99.90;;;;;;5050817;28;20488;-53
2021/11/10 09:14:44;;;;;;;24.30;13.70;;;9.30;99.90;;;;;;5051196;28;20838;-51
2021/11/10 09:17:12;;;;;;;22.37;13.60;;;9.20;99.90;;;;;;5051196;28;20463;-51
2021/11/10 09:19:39;;;;;;;26.17;15.13;;;9.20;99.90;;;;;;5054314;28;20957;-52
2021/11/10 09:22:06;;;;;;;28.50;14.53;;;9.00;99.90;;;;;;5061889;28;20963;-53
2021/11/10 09:24:35;;;;;;;27.47;15.07;;;8.80;99.90;;;;;;5054860;28;20443;-52
2021/11/10 09:27:02;;;;;;;27.83;15.47;;;8.50;99.90;;;;;;5051537;28;20499;-52
2021/11/10 09:29:30;;;;;;;28.23;15.50;;;8.10;99.90;;;;;;5055186;28;20862;-52
2021/11/10 09:31:59;;;;;;;29.10;16.73;;;8.20;99.90;;;;;;5054096;28;20447;-52
2021/11/10 09:34:27;;;;;;;28.90;17.27;;;7.70;99.90;;;;;;5055011;28;20455;-53
2021/11/10 09:36:54;;;;;;;30.97;16.40;;;7.40;99.90;;;;;;5054241;28;20478;-52
2021/11/10 09:39:23;;;;;;;27.77;16.50;;;7.30;99.90;;;;;;5055910;28;20451;-52
2021/11/10 09:41:52;;;;;;;31.00;16.50;;;7.20;99.90;;;;;;5054559;28;20491;-53
2021/11/10 09:44:24;;;;;;;29.53;16.30;;;7.50;99.90;;;;;;5055442;28;20458;-52
2021/11/10 09:46:51;;;;;;;31.70;17.63;;;7.40;99.90;;;;;;5054052;28;20471;-53
2021/11/10 09:49:20;;;;;;;25.13;15.63;;;7.60;99.90;;;;;;5054945;28;20447;-52
2021/11/10 09:51:49;;;;;;;30.87;15.13;;;7.90;99.90;;;;;;5054505;28;20448;-52
2021/11/10 09:54:16;;;;;;;23.20;14.20;;;8.20;99.90;;;;;;5051526;28;20458;-52
2021/11/10 09:56:45;;;;;;;26.40;14.17;;;8.40;99.90;;;;;;5053233;28;20467;-52
2021/11/10 09:59:13;;;;;;;24.70;14.10;;;8.60;99.90;;;;;;5054775;28;20463;-52
2021/11/10 10:01:41;;;;;;;26.30;15.57;;;8.40;99.90;;;;;;5052554;28;20487;-51
2021/11/10 10:04:09;;;;;;;26.53;16.40;;;8.10;99.90;;;;;;5052760;28;20926;-51
2021/11/10 10:06:38;;;;;;;31.60;16.40;;;8.00;99.90;;;;;;5057487;28;20473;-51
2021/11/10 10:09:05;;;;;;;29.60;16.10;;;7.90;99.90;;;;;;5068807;28;20443;-51
2021/11/10 10:11:34;;;;;;;32.40;16.77;;;7.80;99.90;;;;;;5063443;28;20523;-51
2021/11/10 10:14:01;;;;;;;27.63;16.57;;;7.80;99.90;;;;;;5074472;28;20509;-51
2021/11/10 10:16:30;;;;;;;27.47;16.33;;;7.90;99.90;;;;;;5065708;28;20537;-51
2021/11/10 10:19:07;;;;;;;29.93;16.53;;;7.90;99.90;;;;;;5055075;28;21015;-52
2021/11/10 10:21:34;;;;;;;32.97;16.57;;;8.10;99.90;;;;;;5045516;28;20552;-51
2021/11/10 10:24:03;;;;;;;30.90;17.03;;;8.10;99.90;;;;;;5052443;28;20455;-51
2021/11/10 10:26:30;;;;;;;30.57;16.13;;;8.20;99.90;;;;;;5051349;28;20506;-52
2021/11/10 10:29:03;;;;;;;27.33;15.37;;;8.40;99.90;;;;;;5040459;28;20465;-51
2021/11/10 10:31:30;;;;;;;26.07;14.50;;;8.80;99.90;;;;;;5045287;28;20455;-51
2021/11/10 10:33:59;;;;;;;33.40;15.90;;;9.20;99.90;;;;;;5043519;28;20467;-52
2021/11/10 10:36:28;;;;;;;27.67;15.63;;;9.20;99.90;;;;;;5044422;28;20491;-52
2021/11/10 10:38:58;;;;;;;29.57;16.10;;;9.10;99.90;;;;;;5038501;28;20512;-51
2021/11/10 10:41:30;;;;;;;26.00;15.47;;;8.90;99.90;;;;;;5044752;28;20537;-52
2021/11/10 10:44:03;;;;;;;31.30;16.40;;;8.90;99.90;;;;;;5050572;28;20884;-52
2021/11/10 10:46:31;;;;;;;30.90;16.17;;;8.80;99.90;;;;;;5050838;28;20479;-52
2021/11/10 10:49:13;;;;;;;33.63;16.93;;;8.40;99.90;;;;;;5052284;28;20463;-52
2021/11/10 10:51:40;;;;;;;27.83;16.20;;;8.40;99.90;;;;;;5043552;28;20894;-52
2021/11/10 10:54:09;;;;;;;27.23;15.70;;;8.60;99.90;;;;;;5046265;28;20960;-52
2021/11/10 10:56:39;;;;;;;28.03;15.67;;;8.60;99.90;;;;;;5044346;28;20483;-53
2021/11/10 10:59:07;;;;;;;27.70;16.10;;;8.50;99.90;;;;;;5038371;28;20468;-54
2021/11/10 11:01:35;;;;;;;29.27;15.87;;;8.50;99.90;;;;;;5043452;28;20533;-54
2021/11/10 11:04:05;;;;;;;28.63;16.43;;;8.50;99.90;;;;;;5052065;28;20452;-54
2021/11/10 11:06:37;;;;;;;27.80;16.03;;;8.60;99.90;;;;;;5044011;28;20499;-53
2021/11/10 11:09:24;;;;;;;27.10;16.57;;;8.60;99.90;;;;;;5052216;28;20498;-54
2021/11/10 11:11:58;;;;;;;31.10;15.83;;;8.70;99.90;;;;;;5050262;28;20450;-53
2021/11/10 11:14:37;;;;;;;30.87;17.67;;;8.80;99.90;;;;;;5052601;28;20455;-53
2021/11/10 11:17:05;;;;;;;31.73;16.20;;;8.80;99.90;;;;;;5045810;28;20484;-54
2021/11/10 11:19:36;;;;;;;24.70;15.30;;;8.70;99.90;;;;;;5051868;28;20475;-53
2021/11/10 11:22:04;;;;;;;32.30;17.20;;;8.70;99.90;;;;;;5048372;28;20483;-53
2021/11/10 11:24:37;;;;;;;32.27;17.60;;;8.80;99.90;;;;;;5047868;28;20565;-53
2021/11/10 11:27:19;;;;;;;32.57;16.90;;;8.70;99.90;;;;;;5051046;28;21015;-54
2021/11/10 11:29:53;;;;;;;33.03;17.77;;;8.70;99.90;;;;;;5048282;28;20908;-54
2021/11/10 11:32:25;;;;;;;29.70;17.37;;;8.90;99.90;;;;;;5045997;28;20565;-53
2021/11/10 11:34:55;;;;;;;29.10;17.83;;;9.00;99.90;;;;;;5047453;28;20521;-54
2021/11/10 11:37:23;;;;;;;28.93;17.23;;;8.90;99.90;;;;;;5047361;28;20487;-53
2021/11/10 11:39:52;;;;;;;30.07;18.50;;;8.90;99.90;;;;;;5044389;28;20529;-53
2021/11/10 11:42:22;;;;;;;30.00;17.93;;;8.70;99.90;;;;;;5051117;28;20533;-54
2021/11/10 11:44:49;;;;;;;28.80;17.40;;;8.50;99.90;;;;;;5050212;28;20470;-53
2021/11/10 11:47:18;;;;;;;33.97;17.93;;;8.50;99.90;;;;;;5041472;28;20496;-54
2021/11/10 11:49:46;;;;;;;31.65;18.17;;;8.50;99.90;;;;;;5040788;28;20946;-54
2021/11/10 11:52:16;;;;;;;34.13;17.73;;;8.80;99.90;;;;;;5041774;28;20288;-54
2021/11/10 11:54:45;;;;;;;31.67;18.27;;;8.80;99.90;;;;;;5046727;28;20968;-54
2021/11/10 11:57:13;;;;;;;27.37;16.37;;;8.80;99.90;;;;;;5048258;28;20483;-53
2021/11/10 11:59:44;;;;;;;27.57;17.00;;;8.80;99.90;;;;;;5043527;28;21170;-53
2021/11/10 12:02:26;;;;;;;32.27;18.80;;;8.90;99.90;;;;;;5039246;28;20484;-53
2021/11/10 12:04:54;;;;;;;28.97;17.60;;;9.00;99.90;;;;;;5041142;28;20534;-53
2021/11/10 12:07:46;;;;;;;32.17;18.27;;;8.90;99.90;;;;;;5051793;28;20517;-52
2021/11/10 12:10:41;;;;;;;29.67;17.07;;;8.90;99.90;;;;;;5049921;28;20466;-52
2021/11/10 12:13:21;;;;;;;34.37;17.37;;;9.00;99.90;;;;;;5043587;28;20436;-54
2021/11/10 12:16:20;;;;;;;28.47;16.53;;;8.90;99.90;;;;;;5050054;28;20550;-52
2021/11/10 12:19:06;;;;;;;31.40;17.30;;;8.90;99.90;;;;;;5051243;28;20454;-53
2021/11/10 12:21:38;;;;;;;31.00;18.27;;;8.80;99.90;;;;;;5042301;28;20483;-53
2021/11/10 12:24:16;;;;;;;31.20;17.70;;;8.80;99.90;;;;;;5039537;28;20467;-52
2021/11/10 12:27:29;;;;;;;31.90;18.30;;;8.80;99.90;;;;;;5050418;28;21066;-54
2021/11/10 12:30:15;;;;;;;31.80;17.30;;;8.70;99.90;;;;;;5030033;28;20463;-53
2021/11/10 12:32:46;;;;;;;33.17;18.70;;;8.60;99.90;;;;;;5050304;28;20463;-54
2021/11/10 12:35:26;;;;;;;38.00;20.70;;;8.50;99.90;;;;;;5042559;28;20497;-53
2021/11/10 12:37:57;;;;;;;36.37;19.53;;;8.40;99.90;;;;;;5049066;28;20470;-53
2021/11/10 12:40:26;;;;;;;36.10;19.43;;;8.50;99.90;;;;;;5044534;28;20479;-53
2021/11/10 12:42:57;;;;;;;38.80;19.73;;;8.50;99.90;;;;;;5040811;28;20459;-55
2021/11/10 12:45:28;;;;;;;35.70;18.87;;;8.60;99.90;;;;;;5041963;28;20455;-54
2021/11/10 12:47:59;;;;;;;37.60;18.13;;;8.60;99.90;;;;;;5051386;28;20977;-52
2021/11/10 12:50:34;;;;;;;40.40;22.13;;;8.60;99.90;;;;;;5039992;28;20475;-53
2021/11/10 12:53:03;;;;;;;31.73;18.70;;;8.50;99.90;;;;;;5047690;28;20491;-52
2021/11/10 12:55:33;;;;;;;41.63;20.83;;;8.50;99.90;;;;;;5049819;28;20536;-51
2021/11/10 12:58:13;;;;;;;31.57;18.50;;;8.60;99.90;;;;;;5050231;28;20486;-53